Williams Lake, Williams Lake Airport (CYWL)

NameWilliams Lake Airport
CityWilliams Lake
CountryCanada
ICAOCYWL
IATAYWL
Altitude940 m
CoordinatesGoogle Map
Live Air TrafficLiveATC.net
METARCYWL 180100Z 32005KT 10SM BKN015 OVC030 M09/M10 A2956 RMK SC6SC2 SLP071
2019-01-18 01:00:00 Wind: Northwest (320°) 2.57 m/s - Visibility: 16093.4 m - Temperature: -9 °C - Dew point: -10 °C - Humidity: 92.6% - Pressure: 1001.02 hPa
Statistics

The table below shows the detailed information of all flights to/from Williams Lake, Williams Lake Airport (CYWL).